Time;durP1;ratioP1;P1;durP2;ratioP2;P2;SDS_P1;SDS_P2;PMS_P1;PMS_P2;Temp;Humidity;BMP_temperature;BMP_pressure;BME280_temperature;BME280_humidity;BME280_pressure;Samples;Min_cycle;Max_cycle;Signal;HPM_P1;HPM_P2
2023/06/13 00:00:12;;;;;;;3.25;2.80;;;;;;;19.37;49.12;96018.78;4951732;29;20226;-59
2023/06/13 00:02:39;;;;;;;3.10;2.90;;;;;;;19.43;48.47;96009.06;4948267;29;20289;-59
2023/06/13 00:05:06;;;;;;;3.65;2.92;;;;;;;19.44;47.97;96006.19;4939051;29;20235;-59
2023/06/13 00:07:37;;;;;;;3.92;3.03;;;;;;;19.42;46.43;96005.56;4938755;29;20206;-59
2023/06/13 00:10:05;;;;;;;3.15;2.95;;;;;;;19.48;46.53;96007.41;4952669;29;20207;-59
2023/06/13 00:12:32;;;;;;;3.55;3.08;;;;;;;19.51;47.67;96006.16;4957503;29;20694;-59
2023/06/13 00:15:01;;;;;;;3.55;3.25;;;;;;;19.49;47.60;96008.22;4941006;29;20211;-59
2023/06/13 00:17:29;;;;;;;3.13;2.83;;;;;;;19.51;47.73;96011.50;4939194;29;20632;-59
2023/06/13 00:19:56;;;;;;;3.42;3.20;;;;;;;19.52;47.13;96000.56;4946611;29;20637;-59
2023/06/13 00:22:24;;;;;;;3.72;3.20;;;;;;;19.50;47.33;95993.78;4939338;29;20294;-58
2023/06/13 00:24:52;;;;;;;3.00;2.80;;;;;;;19.52;47.18;95991.72;4943583;29;20224;-59
2023/06/13 00:27:18;;;;;;;3.50;3.10;;;;;;;19.42;45.55;95986.78;4946880;29;20222;-59
2023/06/13 00:29:45;;;;;;;6.30;3.20;;;;;;;19.42;45.42;95981.44;4944858;29;20207;-60
2023/06/13 00:32:11;;;;;;;3.35;3.10;;;;;;;19.42;48.18;95988.63;4940897;29;20234;-60
2023/06/13 00:34:38;;;;;;;3.20;3.00;;;;;;;19.39;48.82;95981.81;4939547;29;20537;-59
2023/06/13 00:37:05;;;;;;;4.03;3.63;;;;;;;19.36;48.00;95982.25;4942661;29;20207;-59
2023/06/13 00:39:32;;;;;;;3.33;3.13;;;;;;;19.30;48.78;95977.75;4940654;29;20516;-59
2023/06/13 00:42:01;;;;;;;4.78;3.28;;;;;;;19.21;47.02;95979.00;4950925;29;20202;-59
2023/06/13 00:44:27;;;;;;;3.15;2.95;;;;;;;19.23;48.50;95976.97;4952011;29;20594;-59
2023/06/13 00:46:55;;;;;;;3.60;3.33;;;;;;;19.20;48.39;95972.03;4938827;29;20222;-59
2023/06/13 00:49:22;;;;;;;3.10;2.90;;;;;;;19.21;48.81;95971.81;4944850;29;20214;-59
2023/06/13 00:51:49;;;;;;;3.55;3.28;;;;;;;19.18;47.91;95966.88;4938415;29;20575;-58
2023/06/13 00:54:16;;;;;;;3.25;3.05;;;;;;;19.19;49.38;95965.03;4945553;28;20212;-59
2023/06/13 00:56:44;;;;;;;4.10;3.25;;;;;;;19.06;51.52;95963.19;4946255;28;20658;-59
2023/06/13 00:59:14;;;;;;;4.22;3.42;;;;;;;19.03;51.18;95965.47;4940389;29;20717;-59
2023/06/13 01:01:42;;;;;;;3.08;2.88;;;;;;;18.98;51.47;95963.47;4950134;29;20690;-58
2023/06/13 01:04:09;;;;;;;3.15;2.95;;;;;;;18.93;51.39;95968.63;4946496;29;20294;-59
2023/06/13 01:06:40;;;;;;;3.35;3.15;;;;;;;18.72;51.10;95961.66;4939561;29;20222;-59
2023/06/13 01:09:07;;;;;;;3.42;3.22;;;;;;;18.73;51.91;95955.28;4938553;29;20231;-59
2023/06/13 01:11:39;;;;;;;3.00;2.80;;;;;;;18.73;51.97;95959.81;4940595;29;20254;-59
2023/06/13 01:14:08;;;;;;;3.25;2.95;;;;;;;18.73;50.00;95954.47;4946726;29;20230;-59
2023/06/13 01:16:45;;;;;;;2.85;2.70;;;;;;;18.75;50.13;95952.38;4941930;29;20254;-59
2023/06/13 01:19:21;;;;;;;3.00;2.80;;;;;;;18.76;50.69;95949.50;4957098;29;20203;-59
2023/06/13 01:21:48;;;;;;;9.93;3.40;;;;;;;18.73;51.32;95946.44;4938154;29;20298;-59
2023/06/13 01:24:20;;;;;;;3.00;2.80;;;;;;;18.72;51.96;95953.63;4950445;29;20623;-60
2023/06/13 01:26:51;;;;;;;3.72;3.42;;;;;;;18.63;52.56;95957.59;4938149;29;20239;-59
2023/06/13 01:29:18;;;;;;;3.63;3.30;;;;;;;18.60;51.67;95947.25;4948474;29;20210;-58
2023/06/13 01:31:46;;;;;;;3.42;3.20;;;;;;;18.66;51.12;95957.16;4950985;29;20203;-59
2023/06/13 01:34:14;;;;;;;3.35;3.15;;;;;;;18.62;51.26;95953.25;4944099;29;20238;-59
2023/06/13 01:36:40;;;;;;;3.40;3.10;;;;;;;18.53;51.75;95951.81;4947873;29;20660;-59
2023/06/13 01:39:07;;;;;;;3.55;3.22;;;;;;;18.48;52.14;95956.97;4937641;29;20767;-59
2023/06/13 01:41:34;;;;;;;3.72;3.33;;;;;;;18.42;52.57;95949.78;4946860;29;20601;-58
2023/06/13 01:44:03;;;;;;;3.35;3.15;;;;;;;18.28;53.53;95951.63;4940957;28;20234;-58
2023/06/13 01:46:32;;;;;;;3.80;3.03;;;;;;;18.30;53.73;95960.28;4937397;29;20286;-58
2023/06/13 01:49:10;;;;;;;3.83;3.10;;;;;;;18.06;53.67;95958.22;4941049;29;20207;-59
2023/06/13 01:51:42;;;;;;;3.50;3.20;;;;;;;17.98;55.24;95954.94;4942884;29;20235;-58
2023/06/13 01:54:11;;;;;;;3.35;3.05;;;;;;;17.88;55.47;95956.16;4937511;29;20229;-59
2023/06/13 01:56:39;;;;;;;3.50;3.20;;;;;;;17.86;55.54;95966.22;4941940;29;20207;-59
2023/06/13 01:59:07;;;;;;;3.38;3.17;;;;;;;17.72;56.79;95959.22;4937633;29;20262;-59
2023/06/13 02:01:36;;;;;;;3.47;3.17;;;;;;;17.56;57.54;95956.94;4951441;29;20216;-59
2023/06/13 02:04:03;;;;;;;3.45;3.20;;;;;;;17.40;58.39;95960.78;4937468;29;20207;-58
2023/06/13 02:06:32;;;;;;;3.80;3.40;;;;;;;17.33;58.54;95956.44;4936656;29;20652;-59
2023/06/13 02:09:01;;;;;;;8.02;3.50;;;;;;;17.30;57.13;95964.84;4937389;29;20207;-59
2023/06/13 02:11:29;;;;;;;5.38;3.70;;;;;;;17.04;58.87;95962.91;4939194;29;20384;-59
2023/06/13 02:13:55;;;;;;;3.60;3.30;;;;;;;17.06;59.58;95965.41;4947602;28;20238;-59
2023/06/13 02:16:25;;;;;;;3.40;3.10;;;;;;;16.86;60.76;95966.13;4937073;29;21253;-58
2023/06/13 02:18:51;;;;;;;4.88;3.50;;;;;;;16.91;60.14;95968.19;4937228;29;20214;-59
2023/06/13 02:21:18;;;;;;;4.03;3.35;;;;;;;16.82;62.25;95964.06;4947902;29;20542;-59
2023/06/13 02:23:44;;;;;;;3.70;3.40;;;;;;;16.73;62.12;95965.22;4937459;29;20203;-59
2023/06/13 02:26:13;;;;;;;4.65;3.15;;;;;;;16.74;63.34;95966.88;4936731;29;20229;-59
2023/06/13 02:28:41;;;;;;;3.88;3.58;;;;;;;16.66;63.93;95964.38;4937358;29;20266;-59
2023/06/13 02:31:08;;;;;;;4.78;3.55;;;;;;;16.76;61.90;95965.66;4945168;29;20226;-59
2023/06/13 02:33:36;;;;;;;3.80;3.38;;;;;;;16.59;62.63;95966.19;4937054;29;20719;-59
2023/06/13 02:36:06;;;;;;;4.03;3.72;;;;;;;16.58;62.24;95957.34;4936688;29;20246;-59
2023/06/13 02:38:33;;;;;;;3.72;3.42;;;;;;;16.59;62.46;95963.50;4941543;29;20234;-60
2023/06/13 02:41:00;;;;;;;4.72;3.72;;;;;;;16.51;63.11;95961.78;4949098;29;20218;-59
2023/06/13 02:43:26;;;;;;;4.07;3.78;;;;;;;16.54;62.56;95963.25;4952716;29;20198;-60
2023/06/13 02:45:53;;;;;;;3.83;3.42;;;;;;;16.54;63.20;95966.75;4941660;28;20218;-61
2023/06/13 02:48:21;;;;;;;4.03;3.72;;;;;;;16.52;62.38;95963.44;4943276;29;20222;-59
2023/06/13 02:50:53;;;;;;;4.10;3.80;;;;;;;16.57;62.76;95961.06;4954539;29;20616;-62
2023/06/13 02:53:19;;;;;;;3.83;3.63;;;;;;;16.48;63.21;95969.38;4942863;29;20223;-60
2023/06/13 02:55:46;;;;;;;4.85;3.90;;;;;;;16.46;63.04;95966.06;4946053;29;20239;-59
2023/06/13 02:58:14;;;;;;;4.25;3.80;;;;;;;16.42;62.67;95962.97;4940819;29;20211;-59
2023/06/13 03:00:40;;;;;;;4.95;3.85;;;;;;;16.46;62.49;95966.06;4956611;29;20600;-58
2023/06/13 03:03:07;;;;;;;5.55;4.00;;;;;;;16.45;63.32;95970.59;4953736;29;20237;-59
2023/06/13 03:05:36;;;;;;;4.25;3.95;;;;;;;16.38;63.67;95975.06;4944509;29;20273;-60
2023/06/13 03:08:04;;;;;;;4.25;3.95;;;;;;;16.36;63.86;95975.28;4957189;29;20214;-59
2023/06/13 03:10:32;;;;;;;4.70;4.30;;;;;;;16.32;63.89;95975.84;4945330;29;20210;-59
2023/06/13 03:12:59;;;;;;;4.53;4.13;;;;;;;16.27;63.29;95979.09;4970515;29;20246;-59
2023/06/13 03:15:27;;;;;;;4.00;3.70;;;;;;;16.28;63.24;95983.41;4976973;29;20239;-59
2023/06/13 03:17:53;;;;;;;4.95;4.00;;;;;;;16.21;65.24;95984.38;4979497;28;20216;-59
2023/06/13 03:20:20;;;;;;;4.30;3.90;;;;;;;16.21;64.07;95979.03;4981836;29;20197;-59
2023/06/13 03:22:47;;;;;;;4.63;4.22;;;;;;;16.14;64.39;95980.84;4968509;29;20217;-60
2023/06/13 03:25:18;;;;;;;4.35;4.05;;;;;;;16.11;65.19;95981.22;4960063;29;20210;-59
2023/06/13 03:27:46;;;;;;;6.05;3.47;;;;;;;16.09;64.52;95986.75;4959109;29;20819;-59
2023/06/13 03:30:13;;;;;;;4.15;3.80;;;;;;;16.06;64.45;95988.97;4959031;28;20218;-59
2023/06/13 03:32:39;;;;;;;4.03;3.70;;;;;;;16.08;64.83;95987.78;4958554;28;20573;-59
2023/06/13 03:35:06;;;;;;;4.10;3.67;;;;;;;16.21;63.83;95995.06;4959214;29;20211;-60
2023/06/13 03:37:33;;;;;;;5.35;3.78;;;;;;;16.07;64.74;95995.97;4959221;29;20210;-59
2023/06/13 03:39:59;;;;;;;4.97;4.45;;;;;;;16.11;64.60;95997.22;4959052;29;20214;-59
2023/06/13 03:42:27;;;;;;;4.23;3.93;;;;;;;16.06;65.04;95995.13;4958705;28;20214;-59
2023/06/13 03:44:53;;;;;;;4.33;3.90;;;;;;;16.08;64.08;95994.94;4958733;29;20639;-58
2023/06/13 03:47:20;;;;;;;4.45;3.80;;;;;;;16.00;66.33;95995.06;4959095;29;20636;-59
2023/06/13 03:49:46;;;;;;;4.40;3.97;;;;;;;16.07;65.66;95998.63;4959120;29;20266;-59
2023/06/13 03:52:13;;;;;;;4.63;4.22;;;;;;;16.01;66.69;96008.25;4959541;29;20656;-59
2023/06/13 03:54:42;;;;;;;4.38;3.97;;;;;;;15.94;67.21;96000.16;4961214;29;20238;-58
2023/06/13 03:57:08;;;;;;;4.40;4.00;;;;;;;15.97;66.91;96000.81;4941469;29;20262;-59
2023/06/13 03:59:36;;;;;;;6.53;4.30;;;;;;;15.93;63.40;96000.34;4940164;29;20215;-59
2023/06/13 04:02:03;;;;;;;3.90;3.65;;;;;;;15.97;66.24;96001.63;4944139;29;20226;-59
2023/06/13 04:04:29;;;;;;;4.30;4.00;;;;;;;15.97;66.45;96003.47;4947428;29;20211;-58
2023/06/13 04:06:56;;;;;;;4.22;3.83;;;;;;;15.99;67.50;96001.41;4939474;29;20218;-60
2023/06/13 04:09:23;;;;;;;4.60;4.15;;;;;;;16.03;66.58;96005.34;4950853;29;20274;-59
2023/06/13 04:11:49;;;;;;;4.63;3.80;;;;;;;16.00;65.48;96006.56;4945139;29;20234;-59
2023/06/13 04:14:16;;;;;;;5.78;4.22;;;;;;;15.95;66.17;95998.31;4946620;29;20663;-59
2023/06/13 04:16:44;;;;;;;5.37;3.90;;;;;;;16.03;65.76;96000.03;4938912;29;20222;-60
2023/06/13 04:19:11;;;;;;;5.67;3.77;;;;;;;16.09;65.27;96004.59;4938223;29;20302;-60
2023/06/13 04:21:37;;;;;;;4.40;4.00;;;;;;;15.99;67.77;96004.09;4939096;29;20243;-59
2023/06/13 04:24:04;;;;;;;4.87;4.47;;;;;;;16.00;67.69;96000.41;4940111;29;20207;-59
2023/06/13 04:26:31;;;;;;;5.20;4.30;;;;;;;16.06;65.55;96000.47;4939352;29;20218;-59
2023/06/13 04:28:58;;;;;;;4.80;4.40;;;;;;;16.09;65.60;96002.75;4939165;29;20301;-58
2023/06/13 04:31:34;;;;;;;6.33;4.17;;;;;;;16.14;64.94;96007.50;4938741;29;20659;-59
2023/06/13 04:34:03;;;;;;;4.40;4.00;;;;;;;16.16;65.46;96005.47;4951238;29;20252;-60
2023/06/13 04:36:33;;;;;;;4.67;4.20;;;;;;;16.15;65.44;96004.66;4958033;29;20222;-59
2023/06/13 04:39:04;;;;;;;5.20;4.27;;;;;;;16.30;66.57;96008.03;4951265;29;20269;-60
2023/06/13 04:41:34;;;;;;;4.45;4.10;;;;;;;16.46;65.01;96012.28;4950323;29;20210;-59
2023/06/13 04:44:03;;;;;;;4.65;4.25;;;;;;;16.58;63.94;96012.59;4947465;29;20204;-59
2023/06/13 04:46:29;;;;;;;4.70;4.10;;;;;;;16.58;66.82;96010.72;4938443;29;20238;-59
2023/06/13 04:48:57;;;;;;;5.93;4.20;;;;;;;16.62;66.52;96014.66;4944459;29;20207;-60
2023/06/13 04:51:27;;;;;;;4.63;4.22;;;;;;;16.70;67.27;96014.53;4938688;29;20305;-59
2023/06/13 04:53:53;;;;;;;4.72;3.88;;;;;;;16.83;64.06;96019.94;4949807;29;20227;-60
2023/06/13 04:56:20;;;;;;;4.38;4.03;;;;;;;16.84;64.25;96013.56;4943269;29;20218;-60
2023/06/13 04:58:47;;;;;;;4.57;4.07;;;;;;;17.04;61.13;96015.53;4945152;29;20211;-59
2023/06/13 05:01:15;;;;;;;4.15;3.80;;;;;;;17.07;63.68;96015.97;4966182;29;20570;-59
2023/06/13 05:03:42;;;;;;;6.18;4.28;;;;;;;17.21;61.78;96016.84;4954734;28;20221;-59
2023/06/13 05:06:09;;;;;;;3.67;3.38;;;;;;;17.29;61.43;96024.66;4964745;28;20273;-59
2023/06/13 05:08:37;;;;;;;3.95;3.65;;;;;;;17.38;61.02;96028.84;4944085;29;20211;-59
2023/06/13 05:11:04;;;;;;;4.30;3.70;;;;;;;17.52;60.46;96027.03;4938758;29;20238;-59
2023/06/13 05:13:30;;;;;;;4.32;4.00;;;;;;;17.63;59.26;96016.59;4951155;29;20227;-61
2023/06/13 05:15:57;;;;;;;4.50;4.10;;;;;;;17.79;60.36;96015.38;4937953;29;20211;-60
2023/06/13 05:18:24;;;;;;;4.10;3.80;;;;;;;17.98;59.32;96016.47;4946899;29;20261;-58
2023/06/13 05:20:51;;;;;;;4.30;4.00;;;;;;;18.04;56.15;96020.97;4960163;29;20206;-61
2023/06/13 05:23:20;;;;;;;4.20;3.80;;;;;;;18.14;56.28;96013.41;4939025;28;20221;-61
2023/06/13 05:25:48;;;;;;;4.25;3.85;;;;;;;18.29;55.91;96024.72;4937477;29;20282;-60
2023/06/13 05:28:16;;;;;;;4.63;4.18;;;;;;;18.33;55.96;96023.28;4937494;29;20612;-60
2023/06/13 05:30:42;;;;;;;5.75;4.28;;;;;;;18.45;55.51;96027.00;4937594;29;20219;-61
2023/06/13 05:33:09;;;;;;;4.20;3.78;;;;;;;18.70;55.83;96028.03;4943995;29;20218;-61
2023/06/13 05:35:35;;;;;;;4.10;3.78;;;;;;;18.85;55.08;96017.88;4943866;29;20629;-61
2023/06/13 05:38:02;;;;;;;4.45;3.85;;;;;;;18.91;54.90;96015.41;4940037;29;20218;-60
2023/06/13 05:40:28;;;;;;;4.45;4.03;;;;;;;18.95;53.65;96027.34;4941120;29;20230;-61
2023/06/13 05:42:56;;;;;;;3.70;3.50;;;;;;;19.15;52.78;96017.41;4940652;29;20207;-60
2023/06/13 05:45:23;;;;;;;4.50;3.78;;;;;;;19.40;53.53;96021.03;4937446;29;20210;-60
2023/06/13 05:47:50;;;;;;;4.07;3.78;;;;;;;19.51;51.86;96015.03;4937458;29;20696;-60
2023/06/13 05:50:16;;;;;;;4.45;3.72;;;;;;;19.68;51.53;96020.69;4941804;29;20207;-60
2023/06/13 05:52:43;;;;;;;6.10;3.95;;;;;;;19.82;51.78;96024.97;4937696;29;20229;-60
2023/06/13 05:55:09;;;;;;;4.43;4.03;;;;;;;19.87;49.88;96023.25;4943595;29;20222;-61
2023/06/13 05:57:41;;;;;;;5.53;3.80;;;;;;;20.12;49.85;96025.19;4948540;28;20222;-60
2023/06/13 06:00:12;;;;;;;3.90;3.63;;;;;;;20.33;49.94;96022.19;4938807;29;20215;-61
2023/06/13 06:02:39;;;;;;;6.43;4.15;;;;;;;20.47;49.40;96022.88;4956628;28;20222;-61
2023/06/13 06:05:13;;;;;;;5.07;3.80;;;;;;;20.33;47.63;96020.28;4941174;29;20206;-61
2023/06/13 06:10:49;;;;;;;5.65;4.00;;;;;;;20.50;48.76;96022.44;4925424;29;20535;-61
2023/06/13 06:13:16;;;;;;;6.88;4.18;;;;;;;20.82;49.35;96015.94;4937119;29;20218;-61
2023/06/13 06:15:43;;;;;;;5.80;3.60;;;;;;;20.98;48.73;96015.34;4936647;29;20235;-62
2023/06/13 06:18:10;;;;;;;4.65;3.80;;;;;;;21.08;48.74;96009.47;4936815;29;20219;-62
2023/06/13 06:20:36;;;;;;;5.45;3.63;;;;;;;21.34;47.80;96019.94;4936620;29;20226;-61
2023/06/13 06:23:03;;;;;;;4.03;3.60;;;;;;;21.43;46.94;96013.22;4936750;29;20223;-61
2023/06/13 06:25:29;;;;;;;4.93;3.75;;;;;;;21.73;48.15;96006.00;4936839;29;20211;-61
2023/06/13 06:27:56;;;;;;;5.22;4.00;;;;;;;21.81;46.08;96011.06;4941428;29;20265;-60
2023/06/13 06:30:22;;;;;;;6.10;3.80;;;;;;;22.04;45.72;96017.59;4945057;29;20229;-61
2023/06/13 06:32:51;;;;;;;3.75;3.45;;;;;;;22.14;43.91;96015.19;4954326;29;20213;-61
2023/06/13 06:35:18;;;;;;;4.85;3.63;;;;;;;22.12;44.25;96015.41;4953749;29;20297;-61
2023/06/13 06:37:44;;;;;;;7.55;4.18;;;;;;;22.23;44.71;96016.47;4955980;29;20214;-61
2023/06/13 06:40:11;;;;;;;5.03;3.63;;;;;;;22.18;43.32;96010.94;4946914;29;20215;-61
2023/06/13 06:42:38;;;;;;;3.78;3.47;;;;;;;22.08;43.13;96011.53;4954730;29;20214;-61
2023/06/13 06:45:09;;;;;;;3.92;3.55;;;;;;;22.27;44.75;96009.59;4955801;29;20218;-61
2023/06/13 06:47:36;;;;;;;5.13;3.50;;;;;;;22.68;45.35;96016.81;4954678;29;20265;-61
2023/06/13 06:50:05;;;;;;;4.93;3.78;;;;;;;22.74;43.09;96014.00;4955664;29;20541;-62
2023/06/13 06:52:32;;;;;;;5.30;3.55;;;;;;;22.87;43.55;96004.03;4958709;28;20214;-61
2023/06/13 06:54:58;;;;;;;5.00;3.72;;;;;;;23.00;43.24;95998.38;4959735;29;20222;-61
2023/06/13 06:57:26;;;;;;;5.15;3.90;;;;;;;23.02;41.53;95996.28;4959775;28;20210;-61
2023/06/13 06:59:52;;;;;;;4.75;3.63;;;;;;;23.24;43.28;96000.00;4959551;29;20636;-60
2023/06/13 07:02:19;;;;;;;7.53;3.85;;;;;;;23.41;42.36;96002.78;4959979;29;20210;-61
2023/06/13 07:04:46;;;;;;;3.92;3.63;;;;;;;23.55;43.11;96002.31;4959823;29;20234;-62
2023/06/13 07:07:14;;;;;;;4.45;3.95;;;;;;;23.74;42.21;96000.22;4951635;29;20221;-62
2023/06/13 07:09:40;;;;;;;4.18;3.78;;;;;;;23.58;40.41;95993.72;4958723;29;20264;-61
2023/06/13 07:12:08;;;;;;;3.88;3.35;;;;;;;23.69;40.74;95995.56;4959210;28;20234;-62
2023/06/13 07:14:34;;;;;;;6.40;3.45;;;;;;;23.75;42.07;95991.06;4960135;29;20231;-62
2023/06/13 07:17:02;;;;;;;4.03;3.50;;;;;;;23.74;40.54;95990.25;4961020;29;20210;-61
2023/06/13 07:19:32;;;;;;;3.80;3.50;;;;;;;24.00;39.40;95998.84;4960792;29;20210;-60
2023/06/13 07:21:58;;;;;;;4.57;4.18;;;;;;;24.11;41.94;95985.28;4959983;28;20301;-61
2023/06/13 07:24:27;;;;;;;4.18;3.78;;;;;;;23.97;39.90;95997.44;4959622;29;20221;-61
2023/06/13 07:26:54;;;;;;;4.65;3.80;;;;;;;24.16;41.62;95993.47;4959290;29;20210;-61
2023/06/13 07:29:20;;;;;;;4.78;3.97;;;;;;;24.21;40.29;95990.88;4958998;28;20221;-61
2023/06/13 07:31:46;;;;;;;7.57;3.90;;;;;;;24.54;40.65;96006.31;4958879;29;20210;-61
2023/06/13 07:34:13;;;;;;;5.25;3.50;;;;;;;24.32;39.40;95997.28;4959190;29;20234;-61
2023/06/13 07:36:40;;;;;;;4.00;3.70;;;;;;;24.36;38.76;95993.03;4959440;29;20207;-61
2023/06/13 07:39:10;;;;;;;3.83;3.53;;;;;;;24.42;41.51;95996.63;4959335;29;20206;-61
2023/06/13 07:41:38;;;;;;;4.05;3.75;;;;;;;24.65;40.26;95994.59;4959241;29;20206;-61
2023/06/13 07:44:04;;;;;;;4.95;4.30;;;;;;;24.78;38.53;95986.13;4955405;28;20223;-61
2023/06/13 07:46:31;;;;;;;7.15;3.95;;;;;;;24.65;42.18;95988.38;4957284;29;20211;-61
2023/06/13 07:48:57;;;;;;;4.00;3.70;;;;;;;24.80;41.04;95987.78;4958836;29;20764;-62
2023/06/13 07:51:24;;;;;;;4.45;3.65;;;;;;;25.06;40.46;95984.38;4959019;29;20281;-61
2023/06/13 07:53:50;;;;;;;5.25;3.83;;;;;;;25.32;40.01;95988.25;4958655;29;20639;-62
2023/06/13 07:56:17;;;;;;;3.72;3.42;;;;;;;25.26;40.33;95979.22;4948402;29;20246;-60
2023/06/13 07:58:45;;;;;;;4.28;3.92;;;;;;;25.04;39.84;95973.00;4939598;29;20712;-61
2023/06/13 08:01:12;;;;;;;3.92;3.55;;;;;;;25.44;39.47;95978.94;4949974;29;20218;-61
2023/06/13 08:03:38;;;;;;;5.13;3.63;;;;;;;25.40;39.76;95972.38;4944206;29;20214;-61
2023/06/13 08:06:05;;;;;;;4.68;3.45;;;;;;;25.37;40.64;95972.88;4939635;29;20539;-62
2023/06/13 08:08:31;;;;;;;8.13;3.50;;;;;;;25.47;39.26;95967.59;4939805;29;20554;-61
2023/06/13 08:10:57;;;;;;;3.78;3.47;;;;;;;25.87;38.74;95966.44;4949975;29;20249;-60
2023/06/13 08:13:24;;;;;;;4.15;3.70;;;;;;;25.62;39.07;95966.97;4941803;29;20211;-60
2023/06/13 08:15:52;;;;;;;4.03;3.63;;;;;;;25.78;37.74;95968.81;4938993;29;20235;-61
2023/06/13 08:18:18;;;;;;;4.10;3.80;;;;;;;25.84;38.22;95970.47;4943842;29;20210;-61
2023/06/13 08:20:45;;;;;;;5.35;3.97;;;;;;;25.62;37.33;95967.81;4958876;29;20654;-61
2023/06/13 08:23:12;;;;;;;7.63;4.10;;;;;;;25.74;37.34;95968.50;4940718;28;20215;-62
2023/06/13 08:25:38;;;;;;;4.13;3.75;;;;;;;25.96;38.89;95968.47;4939429;29;20206;-61
2023/06/13 08:28:06;;;;;;;4.35;3.95;;;;;;;25.82;37.91;95963.69;4939344;29;20218;-61
2023/06/13 08:30:33;;;;;;;3.63;3.33;;;;;;;25.66;39.47;95955.41;4939026;29;20223;-61
2023/06/13 08:33:02;;;;;;;5.72;3.60;;;;;;;25.86;37.37;95948.56;4938920;29;20633;-61
2023/06/13 08:35:28;;;;;;;7.18;3.75;;;;;;;25.79;39.27;95956.09;4950792;29;20245;-61
2023/06/13 08:37:55;;;;;;;4.97;3.85;;;;;;;25.70;38.89;95956.53;4939749;28;20655;-61
2023/06/13 08:40:22;;;;;;;4.43;3.63;;;;;;;25.48;37.85;95955.69;4939381;29;20215;-61
2023/06/13 08:42:48;;;;;;;5.32;3.55;;;;;;;25.50;38.59;95948.16;4939105;29;20211;-61
2023/06/13 08:45:15;;;;;;;3.97;3.60;;;;;;;25.21;38.15;95952.13;4939075;29;20219;-61
2023/06/13 08:47:46;;;;;;;6.93;3.90;;;;;;;25.35;38.10;95958.78;4939132;29;20207;-61
2023/06/13 08:50:18;;;;;;;6.72;4.55;;;;;;;25.37;37.98;95950.41;4944094;29;20207;-60
2023/06/13 08:52:47;;;;;;;4.70;3.72;;;;;;;25.57;38.92;95950.69;4939332;29;20215;-60
2023/06/13 08:55:16;;;;;;;6.43;3.80;;;;;;;25.45;38.67;95958.91;4943653;29;20326;-61
2023/06/13 08:57:45;;;;;;;3.72;3.42;;;;;;;25.68;39.66;95950.53;4938831;29;20692;-60
2023/06/13 09:00:15;;;;;;;4.30;3.83;;;;;;;25.66;37.08;95952.69;4953837;29;20639;-62
2023/06/13 09:02:43;;;;;;;4.10;3.70;;;;;;;25.65;38.02;95942.91;4957410;28;20230;-61
2023/06/13 09:05:13;;;;;;;6.00;4.00;;;;;;;25.64;38.10;95946.72;4958322;28;20211;-61
2023/06/13 09:07:41;;;;;;;4.18;3.88;;;;;;;25.48;38.77;95942.16;4964744;29;20572;-61
2023/06/13 09:10:10;;;;;;;4.93;3.60;;;;;;;25.93;38.49;95947.28;4962639;28;20234;-61
2023/06/13 09:12:37;;;;;;;4.15;3.85;;;;;;;25.94;37.41;95938.06;4963227;28;20270;-61
2023/06/13 09:15:05;;;;;;;4.20;3.30;;;;;;;26.54;38.10;95936.97;4963359;28;20223;-61
2023/06/13 09:17:32;;;;;;;4.03;3.70;;;;;;;26.37;37.52;95939.84;4965294;28;20210;-61
2023/06/13 09:19:58;;;;;;;4.15;3.40;;;;;;;26.46;40.16;95938.31;4963816;29;20214;-60
2023/06/13 09:22:26;;;;;;;5.28;3.80;;;;;;;26.96;38.29;95931.59;4957454;29;20277;-62
2023/06/13 09:24:55;;;;;;;6.47;4.00;;;;;;;27.00;37.68;95929.97;4957213;29;20283;-61
2023/06/13 09:27:22;;;;;;;7.15;3.90;;;;;;;27.02;36.83;95941.41;4957463;29;20210;-61
2023/06/13 09:29:49;;;;;;;5.32;3.38;;;;;;;26.78;37.33;95932.00;4957804;29;20218;-61
2023/06/13 09:32:16;;;;;;;5.00;3.53;;;;;;;26.65;37.57;95936.78;4957300;29;20675;-62
2023/06/13 09:34:44;;;;;;;4.30;3.50;;;;;;;26.57;37.98;95931.84;4957444;29;20210;-61
2023/06/13 09:37:12;;;;;;;4.50;3.53;;;;;;;26.27;38.18;95936.22;4958097;29;20269;-61
2023/06/13 09:39:46;;;;;;;7.05;4.00;;;;;;;26.26;37.68;95937.31;4957332;29;20210;-61
2023/06/13 09:42:14;;;;;;;7.80;3.30;;;;;;;26.19;39.08;95937.53;4958516;29;20206;-62
2023/06/13 09:44:41;;;;;;;4.97;3.58;;;;;;;26.36;39.31;95940.91;4948129;29;20227;-62
2023/06/13 09:47:07;;;;;;;3.85;3.50;;;;;;;26.16;37.68;95935.28;4959261;29;20583;-62
2023/06/13 09:49:34;;;;;;;4.70;3.55;;;;;;;26.47;37.77;95937.22;4953145;29;20215;-60
2023/06/13 09:52:01;;;;;;;8.82;3.63;;;;;;;26.38;37.10;95944.19;4953562;29;20295;-61
2023/06/13 09:54:31;;;;;;;4.18;3.47;;;;;;;26.68;37.12;95930.84;4959788;29;20694;-61
2023/06/13 09:56:58;;;;;;;6.30;4.03;;;;;;;26.53;35.48;95935.38;4954656;29;20215;-61
2023/06/13 09:59:26;;;;;;;4.40;3.70;;;;;;;26.91;36.39;95924.25;4937772;29;20226;-62
2023/06/13 10:01:52;;;;;;;6.25;3.97;;;;;;;26.88;36.68;95923.97;4950121;29;20214;-61
2023/06/13 10:04:21;;;;;;;5.95;3.22;;;;;;;26.97;38.69;95923.19;4940889;29;20211;-61
2023/06/13 10:06:47;;;;;;;4.53;3.58;;;;;;;27.32;37.81;95925.25;4940772;29;20206;-61
2023/06/13 10:09:14;;;;;;;4.00;3.60;;;;;;;27.19;37.18;95925.75;4947061;29;20211;-61
2023/06/13 10:11:42;;;;;;;5.88;4.22;;;;;;;27.00;36.42;95927.25;4937533;29;20676;-61
2023/06/13 10:14:11;;;;;;;4.43;3.75;;;;;;;27.43;37.59;95917.94;4938212;29;20286;-62
2023/06/13 10:16:42;;;;;;;4.65;3.70;;;;;;;27.11;37.29;95921.63;4937922;29;20250;-62
2023/06/13 10:19:09;;;;;;;3.63;3.33;;;;;;;27.07;36.94;95922.41;4940906;29;20210;-61
2023/06/13 10:21:37;;;;;;;4.13;3.80;;;;;;;27.09;37.03;95914.84;4939549;29;20555;-62
2023/06/13 10:24:05;;;;;;;5.03;3.42;;;;;;;27.01;38.06;95910.72;4939187;29;20664;-60
2023/06/13 10:26:34;;;;;;;4.47;3.67;;;;;;;27.10;38.69;95913.78;4939470;29;20622;-62
2023/06/13 10:29:43;;;;;;;4.18;3.85;;;;;;;26.24;37.92;95929.44;4951976;29;20211;-62
2023/06/13 10:32:29;;;;;;;6.68;3.70;;;;;;;26.66;38.16;95919.44;4893361;29;20678;-61
2023/06/13 10:35:13;;;;;;;4.13;3.72;;;;;;;26.59;39.05;95924.28;4940985;29;20217;-62
2023/06/13 10:38:02;;;;;;;3.97;3.60;;;;;;;26.97;39.56;95922.38;4942415;29;20546;-61
2023/06/13 10:40:45;;;;;;;5.43;4.00;;;;;;;26.62;37.78;95921.06;4939819;29;20238;-61
2023/06/13 10:43:15;;;;;;;3.85;3.50;;;;;;;26.73;38.42;95922.75;4946213;29;20600;-61
2023/06/13 10:45:45;;;;;;;4.80;3.63;;;;;;;26.71;38.21;95918.69;4957836;28;20207;-60
2023/06/13 10:48:13;;;;;;;5.00;3.88;;;;;;;26.99;39.02;95925.66;4956221;29;20214;-62
2023/06/13 10:50:40;;;;;;;5.25;3.53;;;;;;;26.90;38.24;95913.66;4952150;29;20651;-61
2023/06/13 10:53:08;;;;;;;3.47;3.28;;;;;;;27.00;38.38;95916.41;4948046;29;20554;-61
2023/06/13 10:55:38;;;;;;;3.90;3.60;;;;;;;26.94;38.40;95912.03;4951242;29;20223;-61
2023/06/13 10:58:11;;;;;;;3.92;3.55;;;;;;;26.83;37.86;95915.78;4937375;29;20211;-61
2023/06/13 11:00:40;;;;;;;5.22;3.78;;;;;;;26.96;36.99;95910.69;4942900;29;20246;-61
2023/06/13 11:03:08;;;;;;;5.18;3.70;;;;;;;26.99;36.84;95903.94;4946269;29;20207;-61
2023/06/13 11:05:37;;;;;;;5.90;4.03;;;;;;;27.11;39.22;95896.38;4936841;29;20207;-60
2023/06/13 11:08:05;;;;;;;7.57;3.97;;;;;;;26.92;37.24;95892.50;4936936;29;20230;-60
2023/06/13 11:10:34;;;;;;;4.85;3.80;;;;;;;26.98;36.82;95896.88;4937070;29;20308;-61
2023/06/13 11:13:03;;;;;;;3.90;3.60;;;;;;;27.10;40.39;95889.34;4937234;29;20249;-61
2023/06/13 11:15:30;;;;;;;5.72;4.07;;;;;;;27.18;39.00;95897.78;4936466;29;20238;-61
2023/06/13 11:18:32;;;;;;;4.75;3.67;;;;;;;27.39;37.15;95898.66;4936816;29;20219;-62
2023/06/13 11:21:00;;;;;;;5.80;3.70;;;;;;;27.49;36.81;95893.28;4936809;29;20266;-61
2023/06/13 11:23:39;;;;;;;5.10;3.88;;;;;;;27.53;36.70;95891.66;4936781;29;20223;-62
2023/06/13 11:26:06;;;;;;;4.20;3.70;;;;;;;27.54;36.08;95890.59;4936701;29;20203;-61
2023/06/13 11:28:33;;;;;;;6.78;3.83;;;;;;;27.29;37.94;95882.34;4936949;29;20302;-60
2023/06/13 11:31:03;;;;;;;4.43;3.70;;;;;;;27.30;36.19;95880.44;4936098;29;20296;-61
2023/06/13 11:33:32;;;;;;;5.40;3.67;;;;;;;27.23;36.35;95877.97;4936818;29;20214;-62
2023/06/13 11:36:00;;;;;;;5.35;3.90;;;;;;;27.08;36.68;95880.63;4949498;29;20239;-61
2023/06/13 11:38:32;;;;;;;6.55;3.50;;;;;;;26.98;37.01;95875.16;4936671;29;20215;-61
2023/06/13 11:40:59;;;;;;;5.47;3.83;;;;;;;27.24;37.05;95876.09;4942634;29;20244;-61